sensor_id;sensor_type;location;lat;lon;timestamp;P1;durP1;ratioP1;P2;durP2;ratioP2
30896;SDS011;64229;52.246;21.054;2022-12-18T00:03:52;49.08;;;16.55;;
30896;SDS011;64229;52.246;21.054;2022-12-18T00:06:19;44.50;;;16.33;;
30896;SDS011;64229;52.246;21.054;2022-12-18T00:08:45;44.90;;;16.60;;
30896;SDS011;64229;52.246;21.054;2022-12-18T00:11:13;47.45;;;16.90;;
30896;SDS011;64229;52.246;21.054;2022-12-18T00:13:40;46.50;;;17.20;;
30896;SDS011;64229;52.246;21.054;2022-12-18T00:16:10;45.67;;;16.27;;
30896;SDS011;64229;52.246;21.054;2022-12-18T00:18:37;47.20;;;17.52;;
30896;SDS011;64229;52.246;21.054;2022-12-18T00:21:04;43.42;;;17.40;;
30896;SDS011;64229;52.246;21.054;2022-12-18T00:23:31;47.05;;;17.42;;
30896;SDS011;64229;52.246;21.054;2022-12-18T00:26:01;41.78;;;15.85;;
30896;SDS011;64229;52.246;21.054;2022-12-18T00:28:28;42.97;;;15.10;;
30896;SDS011;64229;52.246;21.054;2022-12-18T00:31:27;38.25;;;15.05;;
30896;SDS011;64229;52.246;21.054;2022-12-18T00:33:47;45.15;;;16.33;;
30896;SDS011;64229;52.246;21.054;2022-12-18T00:36:13;45.70;;;16.25;;
30896;SDS011;64229;52.246;21.054;2022-12-18T00:38:41;41.72;;;15.85;;
30896;SDS011;64229;52.246;21.054;2022-12-18T00:41:06;38.97;;;14.88;;
30896;SDS011;64229;52.246;21.054;2022-12-18T00:43:33;46.65;;;16.70;;
30896;SDS011;64229;52.246;21.054;2022-12-18T00:45:58;44.20;;;15.88;;
30896;SDS011;64229;52.246;21.054;2022-12-18T00:48:24;34.55;;;14.35;;
30896;SDS011;64229;52.246;21.054;2022-12-18T00:50:49;40.22;;;14.23;;
30896;SDS011;64229;52.246;21.054;2022-12-18T00:53:15;36.03;;;13.48;;
30896;SDS011;64229;52.246;21.054;2022-12-18T00:55:42;40.65;;;13.25;;
30896;SDS011;64229;52.246;21.054;2022-12-18T00:58:08;33.97;;;14.18;;
30896;SDS011;64229;52.246;21.054;2022-12-18T01:00:34;32.72;;;12.35;;
30896;SDS011;64229;52.246;21.054;2022-12-18T01:03:00;34.13;;;11.85;;
30896;SDS011;64229;52.246;21.054;2022-12-18T01:05:25;30.70;;;12.15;;
30896;SDS011;64229;52.246;21.054;2022-12-18T01:07:51;36.05;;;12.45;;
30896;SDS011;64229;52.246;21.054;2022-12-18T01:10:16;39.92;;;13.77;;
30896;SDS011;64229;52.246;21.054;2022-12-18T01:12:42;31.67;;;12.95;;
30896;SDS011;64229;52.246;21.054;2022-12-18T01:15:09;33.80;;;12.02;;
30896;SDS011;64229;52.246;21.054;2022-12-18T01:17:35;33.13;;;11.77;;
30896;SDS011;64229;52.246;21.054;2022-12-18T01:20:00;31.73;;;11.75;;
30896;SDS011;64229;52.246;21.054;2022-12-18T01:22:26;35.17;;;13.73;;
30896;SDS011;64229;52.246;21.054;2022-12-18T01:24:51;32.70;;;12.57;;
30896;SDS011;64229;52.246;21.054;2022-12-18T01:27:16;36.65;;;13.98;;
30896;SDS011;64229;52.246;21.054;2022-12-18T01:29:42;35.45;;;12.93;;
30896;SDS011;64229;52.246;21.054;2022-12-18T01:32:07;35.05;;;13.40;;
30896;SDS011;64229;52.246;21.054;2022-12-18T01:34:35;36.33;;;13.20;;
30896;SDS011;64229;52.246;21.054;2022-12-18T01:37:02;36.90;;;13.30;;
30896;SDS011;64229;52.246;21.054;2022-12-18T01:39:28;41.72;;;13.07;;
30896;SDS011;64229;52.246;21.054;2022-12-18T01:41:53;35.20;;;14.52;;
30896;SDS011;64229;52.246;21.054;2022-12-18T01:47:31;35.90;;;12.27;;
30896;SDS011;64229;52.246;21.054;2022-12-18T01:50:40;29.48;;;13.10;;
30896;SDS011;64229;52.246;21.054;2022-12-18T01:55:42;34.42;;;11.40;;
30896;SDS011;64229;52.246;21.054;2022-12-18T01:58:10;37.83;;;13.52;;
30896;SDS011;64229;52.246;21.054;2022-12-18T02:00:36;29.42;;;11.50;;
30896;SDS011;64229;52.246;21.054;2022-12-18T02:03:01;33.85;;;13.07;;
30896;SDS011;64229;52.246;21.054;2022-12-18T02:14:02;33.25;;;13.20;;
30896;SDS011;64229;52.246;21.054;2022-12-18T02:16:39;37.55;;;12.75;;
30896;SDS011;64229;52.246;21.054;2022-12-18T02:22:07;42.20;;;14.30;;
30896;SDS011;64229;52.246;21.054;2022-12-18T02:24:49;37.88;;;12.65;;
30896;SDS011;64229;52.246;21.054;2022-12-18T02:27:25;35.88;;;13.32;;
30896;SDS011;64229;52.246;21.054;2022-12-18T02:29:53;35.35;;;11.13;;
30896;SDS011;64229;52.246;21.054;2022-12-18T02:32:22;35.58;;;12.80;;
30896;SDS011;64229;52.246;21.054;2022-12-18T02:34:52;32.67;;;11.13;;
30896;SDS011;64229;52.246;21.054;2022-12-18T02:37:20;35.42;;;13.00;;
30896;SDS011;64229;52.246;21.054;2022-12-18T02:39:48;28.40;;;10.55;;
30896;SDS011;64229;52.246;21.054;2022-12-18T02:42:16;29.90;;;9.57;;
30896;SDS011;64229;52.246;21.054;2022-12-18T02:44:47;30.88;;;12.02;;
30896;SDS011;64229;52.246;21.054;2022-12-18T02:47:14;32.40;;;11.15;;
30896;SDS011;64229;52.246;21.054;2022-12-18T02:52:33;31.17;;;12.43;;
30896;SDS011;64229;52.246;21.054;2022-12-18T02:55:40;29.95;;;12.32;;
30896;SDS011;64229;52.246;21.054;2022-12-18T02:58:15;29.90;;;11.95;;
30896;SDS011;64229;52.246;21.054;2022-12-18T03:00:51;34.45;;;11.82;;
30896;SDS011;64229;52.246;21.054;2022-12-18T03:05:53;30.33;;;11.10;;
30896;SDS011;64229;52.246;21.054;2022-12-18T03:08:31;30.60;;;10.30;;
30896;SDS011;64229;52.246;21.054;2022-12-18T03:11:06;29.63;;;11.05;;
30896;SDS011;64229;52.246;21.054;2022-12-18T03:13:45;29.30;;;10.77;;
30896;SDS011;64229;52.246;21.054;2022-12-18T03:16:19;31.17;;;10.93;;
30896;SDS011;64229;52.246;21.054;2022-12-18T03:18:51;32.08;;;10.13;;
30896;SDS011;64229;52.246;21.054;2022-12-18T03:21:23;28.00;;;9.88;;
30896;SDS011;64229;52.246;21.054;2022-12-18T03:23:56;29.30;;;10.25;;
30896;SDS011;64229;52.246;21.054;2022-12-18T03:26:24;29.83;;;11.02;;
30896;SDS011;64229;52.246;21.054;2022-12-18T03:28:52;30.75;;;10.98;;
30896;SDS011;64229;52.246;21.054;2022-12-18T03:31:22;29.65;;;10.65;;
30896;SDS011;64229;52.246;21.054;2022-12-18T03:34:25;29.42;;;10.40;;
30896;SDS011;64229;52.246;21.054;2022-12-18T03:36:47;29.73;;;10.73;;
30896;SDS011;64229;52.246;21.054;2022-12-18T03:39:12;28.73;;;10.10;;
30896;SDS011;64229;52.246;21.054;2022-12-18T03:41:41;27.05;;;9.93;;
30896;SDS011;64229;52.246;21.054;2022-12-18T03:46:54;31.90;;;11.13;;
30896;SDS011;64229;52.246;21.054;2022-12-18T03:49:50;29.08;;;10.15;;
30896;SDS011;64229;52.246;21.054;2022-12-18T03:55:01;28.88;;;10.32;;
30896;SDS011;64229;52.246;21.054;2022-12-18T03:57:28;28.42;;;10.77;;
30896;SDS011;64229;52.246;21.054;2022-12-18T03:59:57;29.23;;;10.65;;
30896;SDS011;64229;52.246;21.054;2022-12-18T04:02:27;26.38;;;10.52;;
30896;SDS011;64229;52.246;21.054;2022-12-18T04:04:55;26.17;;;9.50;;
30896;SDS011;64229;52.246;21.054;2022-12-18T04:07:24;28.33;;;10.20;;
30896;SDS011;64229;52.246;21.054;2022-12-18T04:09:50;30.38;;;11.55;;
30896;SDS011;64229;52.246;21.054;2022-12-18T04:12:21;29.50;;;11.55;;
30896;SDS011;64229;52.246;21.054;2022-12-18T04:14:49;27.60;;;10.23;;
30896;SDS011;64229;52.246;21.054;2022-12-18T04:17:15;24.15;;;10.02;;
30896;SDS011;64229;52.246;21.054;2022-12-18T04:19:41;25.45;;;9.30;;
30896;SDS011;64229;52.246;21.054;2022-12-18T04:22:06;27.67;;;9.35;;
30896;SDS011;64229;52.246;21.054;2022-12-18T04:24:31;21.65;;;9.30;;
30896;SDS011;64229;52.246;21.054;2022-12-18T04:26:57;28.20;;;10.02;;
30896;SDS011;64229;52.246;21.054;2022-12-18T04:29:22;28.55;;;10.30;;
30896;SDS011;64229;52.246;21.054;2022-12-18T04:31:47;24.65;;;9.95;;
30896;SDS011;64229;52.246;21.054;2022-12-18T04:34:12;28.75;;;10.32;;
30896;SDS011;64229;52.246;21.054;2022-12-18T04:36:38;23.98;;;9.20;;
30896;SDS011;64229;52.246;21.054;2022-12-18T04:39:03;29.52;;;9.05;;
30896;SDS011;64229;52.246;21.054;2022-12-18T04:41:28;25.45;;;8.80;;
30896;SDS011;64229;52.246;21.054;2022-12-18T04:43:54;33.42;;;10.38;;
30896;SDS011;64229;52.246;21.054;2022-12-18T04:46:19;28.65;;;9.95;;
30896;SDS011;64229;52.246;21.054;2022-12-18T04:48:45;28.08;;;10.55;;
30896;SDS011;64229;52.246;21.054;2022-12-18T04:51:11;28.48;;;10.05;;
30896;SDS011;64229;52.246;21.054;2022-12-18T04:53:37;29.38;;;9.40;;
30896;SDS011;64229;52.246;21.054;2022-12-18T04:56:07;30.20;;;10.23;;
30896;SDS011;64229;52.246;21.054;2022-12-18T04:58:34;29.85;;;10.50;;
30896;SDS011;64229;52.246;21.054;2022-12-18T05:00:59;28.40;;;10.15;;
30896;SDS011;64229;52.246;21.054;2022-12-18T05:03:25;26.80;;;9.93;;
30896;SDS011;64229;52.246;21.054;2022-12-18T05:05:50;34.08;;;10.48;;
30896;SDS011;64229;52.246;21.054;2022-12-18T05:08:17;28.92;;;10.93;;
30896;SDS011;64229;52.246;21.054;2022-12-18T05:10:42;27.30;;;9.73;;
30896;SDS011;64229;52.246;21.054;2022-12-18T05:13:08;29.95;;;10.85;;
30896;SDS011;64229;52.246;21.054;2022-12-18T05:15:33;28.08;;;10.70;;
30896;SDS011;64229;52.246;21.054;2022-12-18T05:17:59;32.47;;;10.95;;
30896;SDS011;64229;52.246;21.054;2022-12-18T05:20:25;21.95;;;10.23;;
30896;SDS011;64229;52.246;21.054;2022-12-18T05:22:51;33.25;;;11.10;;
30896;SDS011;64229;52.246;21.054;2022-12-18T05:25:17;32.88;;;11.05;;
30896;SDS011;64229;52.246;21.054;2022-12-18T05:27:43;33.47;;;10.38;;
30896;SDS011;64229;52.246;21.054;2022-12-18T05:30:10;28.73;;;11.20;;
30896;SDS011;64229;52.246;21.054;2022-12-18T05:32:35;29.02;;;10.80;;
30896;SDS011;64229;52.246;21.054;2022-12-18T05:35:01;34.17;;;11.52;;
30896;SDS011;64229;52.246;21.054;2022-12-18T05:37:27;31.15;;;10.20;;
30896;SDS011;64229;52.246;21.054;2022-12-18T05:39:52;31.23;;;10.93;;
30896;SDS011;64229;52.246;21.054;2022-12-18T05:42:17;33.33;;;10.98;;
30896;SDS011;64229;52.246;21.054;2022-12-18T05:44:43;28.45;;;11.10;;
30896;SDS011;64229;52.246;21.054;2022-12-18T05:47:08;32.33;;;10.35;;
30896;SDS011;64229;52.246;21.054;2022-12-18T05:49:34;25.73;;;9.50;;
30896;SDS011;64229;52.246;21.054;2022-12-18T05:51:59;27.17;;;9.70;;
30896;SDS011;64229;52.246;21.054;2022-12-18T05:54:26;26.83;;;9.60;;
30896;SDS011;64229;52.246;21.054;2022-12-18T05:56:52;32.30;;;11.73;;
30896;SDS011;64229;52.246;21.054;2022-12-18T05:59:17;32.67;;;11.45;;
30896;SDS011;64229;52.246;21.054;2022-12-18T06:01:43;30.60;;;11.25;;
30896;SDS011;64229;52.246;21.054;2022-12-18T06:04:08;35.10;;;11.00;;
30896;SDS011;64229;52.246;21.054;2022-12-18T06:06:33;34.28;;;11.88;;
30896;SDS011;64229;52.246;21.054;2022-12-18T06:08:59;33.45;;;11.77;;
30896;SDS011;64229;52.246;21.054;2022-12-18T06:11:26;37.38;;;12.75;;
30896;SDS011;64229;52.246;21.054;2022-12-18T06:13:52;32.45;;;12.40;;
30896;SDS011;64229;52.246;21.054;2022-12-18T06:16:18;34.58;;;12.82;;
30896;SDS011;64229;52.246;21.054;2022-12-18T06:18:44;37.22;;;12.35;;
30896;SDS011;64229;52.246;21.054;2022-12-18T06:21:10;47.50;;;13.45;;
30896;SDS011;64229;52.246;21.054;2022-12-18T06:23:35;45.70;;;14.18;;
30896;SDS011;64229;52.246;21.054;2022-12-18T06:26:04;48.35;;;15.65;;
30896;SDS011;64229;52.246;21.054;2022-12-18T06:28:31;43.80;;;14.55;;
30896;SDS011;64229;52.246;21.054;2022-12-18T06:30:56;50.35;;;16.27;;
30896;SDS011;64229;52.246;21.054;2022-12-18T06:33:22;48.70;;;15.32;;
30896;SDS011;64229;52.246;21.054;2022-12-18T06:35:52;50.38;;;15.00;;
30896;SDS011;64229;52.246;21.054;2022-12-18T06:38:17;43.25;;;15.20;;
30896;SDS011;64229;52.246;21.054;2022-12-18T06:40:42;54.50;;;16.33;;
30896;SDS011;64229;52.246;21.054;2022-12-18T06:43:08;54.13;;;16.10;;
30896;SDS011;64229;52.246;21.054;2022-12-18T06:45:33;56.97;;;17.77;;
30896;SDS011;64229;52.246;21.054;2022-12-18T06:47:58;49.40;;;15.57;;
30896;SDS011;64229;52.246;21.054;2022-12-18T06:50:24;56.15;;;16.23;;
30896;SDS011;64229;52.246;21.054;2022-12-18T06:52:49;60.55;;;17.25;;
30896;SDS011;64229;52.246;21.054;2022-12-18T06:55:14;54.35;;;16.73;;
30896;SDS011;64229;52.246;21.054;2022-12-18T06:57:40;60.67;;;16.35;;
30896;SDS011;64229;52.246;21.054;2022-12-18T07:00:05;63.85;;;16.65;;
30896;SDS011;64229;52.246;21.054;2022-12-18T07:02:32;72.70;;;17.60;;
30896;SDS011;64229;52.246;21.054;2022-12-18T07:04:57;57.15;;;16.98;;
30896;SDS011;64229;52.246;21.054;2022-12-18T07:07:23;51.65;;;16.23;;
30896;SDS011;64229;52.246;21.054;2022-12-18T07:09:51;66.25;;;18.67;;
30896;SDS011;64229;52.246;21.054;2022-12-18T07:12:17;56.22;;;17.48;;
30896;SDS011;64229;52.246;21.054;2022-12-18T07:14:42;66.38;;;18.55;;
30896;SDS011;64229;52.246;21.054;2022-12-18T07:17:08;54.15;;;17.38;;
30896;SDS011;64229;52.246;21.054;2022-12-18T07:19:33;58.58;;;16.73;;
30896;SDS011;64229;52.246;21.054;2022-12-18T07:21:59;57.35;;;16.05;;
30896;SDS011;64229;52.246;21.054;2022-12-18T07:24:25;58.78;;;18.35;;
30896;SDS011;64229;52.246;21.054;2022-12-18T07:26:50;60.47;;;18.60;;
30896;SDS011;64229;52.246;21.054;2022-12-18T07:29:16;67.35;;;17.60;;
30896;SDS011;64229;52.246;21.054;2022-12-18T07:31:41;68.13;;;18.27;;
30896;SDS011;64229;52.246;21.054;2022-12-18T07:34:09;68.25;;;19.30;;
30896;SDS011;64229;52.246;21.054;2022-12-18T07:36:39;64.43;;;18.73;;
30896;SDS011;64229;52.246;21.054;2022-12-18T07:39:05;63.15;;;19.23;;
30896;SDS011;64229;52.246;21.054;2022-12-18T07:41:30;64.43;;;18.85;;
30896;SDS011;64229;52.246;21.054;2022-12-18T07:43:55;62.45;;;17.90;;
30896;SDS011;64229;52.246;21.054;2022-12-18T07:46:21;55.40;;;16.75;;
30896;SDS011;64229;52.246;21.054;2022-12-18T07:48:46;59.95;;;17.23;;
30896;SDS011;64229;52.246;21.054;2022-12-18T07:51:12;60.70;;;19.45;;
30896;SDS011;64229;52.246;21.054;2022-12-18T07:53:37;64.22;;;18.95;;
30896;SDS011;64229;52.246;21.054;2022-12-18T07:56:04;64.07;;;19.83;;
30896;SDS011;64229;52.246;21.054;2022-12-18T07:58:31;61.60;;;18.48;;
30896;SDS011;64229;52.246;21.054;2022-12-18T08:01:10;59.17;;;16.98;;
30896;SDS011;64229;52.246;21.054;2022-12-18T08:03:37;68.22;;;18.65;;
30896;SDS011;64229;52.246;21.054;2022-12-18T08:06:05;64.20;;;19.10;;
30896;SDS011;64229;52.246;21.054;2022-12-18T08:08:32;62.63;;;17.52;;
30896;SDS011;64229;52.246;21.054;2022-12-18T08:10:57;66.72;;;18.70;;
30896;SDS011;64229;52.246;21.054;2022-12-18T08:13:23;65.35;;;19.15;;
30896;SDS011;64229;52.246;21.054;2022-12-18T08:15:56;66.70;;;19.33;;
30896;SDS011;64229;52.246;21.054;2022-12-18T08:18:26;66.72;;;18.70;;
30896;SDS011;64229;52.246;21.054;2022-12-18T08:20:51;58.80;;;18.45;;
30896;SDS011;64229;52.246;21.054;2022-12-18T08:23:17;65.53;;;20.70;;
30896;SDS011;64229;52.246;21.054;2022-12-18T08:25:42;69.28;;;18.40;;
30896;SDS011;64229;52.246;21.054;2022-12-18T08:28:08;65.68;;;17.80;;
30896;SDS011;64229;52.246;21.054;2022-12-18T08:30:34;66.10;;;19.25;;
30896;SDS011;64229;52.246;21.054;2022-12-18T08:33:00;67.35;;;18.75;;
30896;SDS011;64229;52.246;21.054;2022-12-18T08:35:25;72.13;;;18.85;;
30896;SDS011;64229;52.246;21.054;2022-12-18T08:37:51;63.17;;;18.25;;
30896;SDS011;64229;52.246;21.054;2022-12-18T08:40:17;67.93;;;18.23;;
30896;SDS011;64229;52.246;21.054;2022-12-18T08:42:42;66.53;;;19.70;;
30896;SDS011;64229;52.246;21.054;2022-12-18T08:45:26;63.90;;;19.67;;
30896;SDS011;64229;52.246;21.054;2022-12-18T08:47:51;51.92;;;17.83;;
30896;SDS011;64229;52.246;21.054;2022-12-18T08:50:17;56.88;;;18.63;;
30896;SDS011;64229;52.246;21.054;2022-12-18T08:52:42;61.92;;;19.35;;
30896;SDS011;64229;52.246;21.054;2022-12-18T08:55:07;51.13;;;18.30;;
30896;SDS011;64229;52.246;21.054;2022-12-18T08:57:34;50.50;;;17.35;;
30896;SDS011;64229;52.246;21.054;2022-12-18T08:59:59;54.92;;;17.70;;
30896;SDS011;64229;52.246;21.054;2022-12-18T09:02:24;52.30;;;16.25;;
30896;SDS011;64229;52.246;21.054;2022-12-18T09:04:50;54.17;;;18.05;;
30896;SDS011;64229;52.246;21.054;2022-12-18T09:07:15;54.40;;;18.35;;
30896;SDS011;64229;52.246;21.054;2022-12-18T09:09:41;61.17;;;16.65;;
30896;SDS011;64229;52.246;21.054;2022-12-18T09:12:06;45.80;;;16.35;;
30896;SDS011;64229;52.246;21.054;2022-12-18T09:14:32;54.25;;;17.42;;
30896;SDS011;64229;52.246;21.054;2022-12-18T09:16:57;47.20;;;16.45;;
30896;SDS011;64229;52.246;21.054;2022-12-18T09:19:22;50.50;;;16.67;;
30896;SDS011;64229;52.246;21.054;2022-12-18T09:21:47;51.15;;;16.10;;
30896;SDS011;64229;52.246;21.054;2022-12-18T09:24:13;52.75;;;16.48;;
30896;SDS011;64229;52.246;21.054;2022-12-18T09:26:39;61.05;;;18.27;;
30896;SDS011;64229;52.246;21.054;2022-12-18T09:29:05;53.88;;;16.30;;
30896;SDS011;64229;52.246;21.054;2022-12-18T09:31:32;55.15;;;17.83;;
30896;SDS011;64229;52.246;21.054;2022-12-18T09:33:57;49.10;;;16.33;;
30896;SDS011;64229;52.246;21.054;2022-12-18T09:36:23;50.20;;;16.00;;
30896;SDS011;64229;52.246;21.054;2022-12-18T09:38:48;49.33;;;17.73;;
30896;SDS011;64229;52.246;21.054;2022-12-18T09:41:17;53.17;;;18.17;;
30896;SDS011;64229;52.246;21.054;2022-12-18T09:43:54;42.40;;;14.15;;
30896;SDS011;64229;52.246;21.054;2022-12-18T09:46:34;48.08;;;15.27;;
30896;SDS011;64229;52.246;21.054;2022-12-18T09:49:05;56.63;;;17.48;;
30896;SDS011;64229;52.246;21.054;2022-12-18T09:51:44;43.83;;;14.77;;
30896;SDS011;64229;52.246;21.054;2022-12-18T09:54:17;54.35;;;17.48;;
30896;SDS011;64229;52.246;21.054;2022-12-18T09:56:47;51.72;;;17.23;;
30896;SDS011;64229;52.246;21.054;2022-12-18T10:01:54;58.65;;;20.33;;
30896;SDS011;64229;52.246;21.054;2022-12-18T10:04:19;49.05;;;16.92;;
30896;SDS011;64229;52.246;21.054;2022-12-18T10:06:46;51.13;;;16.88;;
30896;SDS011;64229;52.246;21.054;2022-12-18T10:09:43;51.45;;;18.00;;
30896;SDS011;64229;52.246;21.054;2022-12-18T10:18:36;54.83;;;20.40;;
30896;SDS011;64229;52.246;21.054;2022-12-18T10:20:45;58.95;;;20.05;;
30896;SDS011;64229;52.246;21.054;2022-12-18T10:23:27;57.28;;;19.73;;
30896;SDS011;64229;52.246;21.054;2022-12-18T10:26:12;67.82;;;22.92;;
30896;SDS011;64229;52.246;21.054;2022-12-18T10:28:38;67.05;;;23.40;;
30896;SDS011;64229;52.246;21.054;2022-12-18T10:31:05;57.15;;;21.80;;
30896;SDS011;64229;52.246;21.054;2022-12-18T10:33:32;63.67;;;22.05;;
30896;SDS011;64229;52.246;21.054;2022-12-18T10:35:59;62.20;;;21.90;;
30896;SDS011;64229;52.246;21.054;2022-12-18T10:38:29;64.00;;;23.30;;
30896;SDS011;64229;52.246;21.054;2022-12-18T10:41:04;67.72;;;22.98;;
30896;SDS011;64229;52.246;21.054;2022-12-18T10:43:36;69.38;;;22.83;;
30896;SDS011;64229;52.246;21.054;2022-12-18T10:48:49;67.50;;;21.50;;
30896;SDS011;64229;52.246;21.054;2022-12-18T10:53:51;61.22;;;20.67;;
30896;SDS011;64229;52.246;21.054;2022-12-18T10:56:20;58.25;;;21.23;;
30896;SDS011;64229;52.246;21.054;2022-12-18T10:58:46;67.15;;;22.55;;
30896;SDS011;64229;52.246;21.054;2022-12-18T11:01:22;64.32;;;22.80;;
30896;SDS011;64229;52.246;21.054;2022-12-18T11:06:17;53.92;;;19.30;;
30896;SDS011;64229;52.246;21.054;2022-12-18T11:08:56;58.75;;;20.50;;
30896;SDS011;64229;52.246;21.054;2022-12-18T11:11:24;54.78;;;19.13;;
30896;SDS011;64229;52.246;21.054;2022-12-18T11:14:12;60.63;;;20.30;;
30896;SDS011;64229;52.246;21.054;2022-12-18T11:16:43;57.28;;;18.67;;
30896;SDS011;64229;52.246;21.054;2022-12-18T11:19:34;65.57;;;22.38;;
30896;SDS011;64229;52.246;21.054;2022-12-18T11:22:21;67.97;;;22.55;;
30896;SDS011;64229;52.246;21.054;2022-12-18T11:25:03;63.97;;;21.42;;
30896;SDS011;64229;52.246;21.054;2022-12-18T11:27:31;65.85;;;20.77;;
30896;SDS011;64229;52.246;21.054;2022-12-18T11:30:20;63.53;;;20.90;;
30896;SDS011;64229;52.246;21.054;2022-12-18T11:35:37;69.35;;;21.33;;
30896;SDS011;64229;52.246;21.054;2022-12-18T11:38:56;62.95;;;21.45;;
30896;SDS011;64229;52.246;21.054;2022-12-18T11:44:19;66.32;;;21.60;;
30896;SDS011;64229;52.246;21.054;2022-12-18T11:46:53;76.22;;;23.13;;
30896;SDS011;64229;52.246;21.054;2022-12-18T11:49:28;69.85;;;21.60;;
30896;SDS011;64229;52.246;21.054;2022-12-18T11:54:24;78.60;;;24.13;;
30896;SDS011;64229;52.246;21.054;2022-12-18T12:02:15;64.18;;;20.23;;
30896;SDS011;64229;52.246;21.054;2022-12-18T12:13:21;67.75;;;21.50;;
30896;SDS011;64229;52.246;21.054;2022-12-18T12:26:52;77.78;;;22.70;;
30896;SDS011;64229;52.246;21.054;2022-12-18T12:32:05;68.78;;;20.95;;
30896;SDS011;64229;52.246;21.054;2022-12-18T12:34:43;72.82;;;21.92;;
30896;SDS011;64229;52.246;21.054;2022-12-18T12:37:35;67.38;;;21.25;;
30896;SDS011;64229;52.246;21.054;2022-12-18T12:42:47;63.67;;;21.63;;
30896;SDS011;64229;52.246;21.054;2022-12-18T12:45:41;75.43;;;22.85;;
30896;SDS011;64229;52.246;21.054;2022-12-18T12:48:13;65.80;;;22.70;;
30896;SDS011;64229;52.246;21.054;2022-12-18T12:50:42;73.15;;;22.42;;
30896;SDS011;64229;52.246;21.054;2022-12-18T12:53:09;69.78;;;23.33;;
30896;SDS011;64229;52.246;21.054;2022-12-18T12:55:43;67.35;;;22.60;;
30896;SDS011;64229;52.246;21.054;2022-12-18T12:58:18;69.10;;;22.13;;
30896;SDS011;64229;52.246;21.054;2022-12-18T13:00:54;70.38;;;22.15;;
30896;SDS011;64229;52.246;21.054;2022-12-18T13:06:23;75.28;;;22.35;;
30896;SDS011;64229;52.246;21.054;2022-12-18T13:08:56;72.13;;;22.63;;
30896;SDS011;64229;52.246;21.054;2022-12-18T13:11:40;67.78;;;22.08;;
30896;SDS011;64229;52.246;21.054;2022-12-18T13:14:35;67.43;;;22.30;;
30896;SDS011;64229;52.246;21.054;2022-12-18T13:19:42;77.78;;;22.65;;
30896;SDS011;64229;52.246;21.054;2022-12-18T13:22:24;72.95;;;22.58;;
30896;SDS011;64229;52.246;21.054;2022-12-18T13:24:55;74.03;;;23.90;;
30896;SDS011;64229;52.246;21.054;2022-12-18T13:43:43;72.10;;;22.50;;
30896;SDS011;64229;52.246;21.054;2022-12-18T13:51:31;78.60;;;24.13;;
30896;SDS011;64229;52.246;21.054;2022-12-18T13:53:59;78.30;;;24.13;;
30896;SDS011;64229;52.246;21.054;2022-12-18T13:56:28;77.50;;;24.80;;
30896;SDS011;64229;52.246;21.054;2022-12-18T13:59:33;69.90;;;23.05;;
30896;SDS011;64229;52.246;21.054;2022-12-18T14:01:58;65.57;;;21.60;;
30896;SDS011;64229;52.246;21.054;2022-12-18T14:04:29;69.47;;;21.23;;
30896;SDS011;64229;52.246;21.054;2022-12-18T14:07:05;73.57;;;22.85;;
30896;SDS011;64229;52.246;21.054;2022-12-18T14:09:42;75.07;;;23.35;;
30896;SDS011;64229;52.246;21.054;2022-12-18T14:12:18;78.80;;;22.27;;
30896;SDS011;64229;52.246;21.054;2022-12-18T14:15:20;70.65;;;21.25;;
30896;SDS011;64229;52.246;21.054;2022-12-18T14:20:39;74.38;;;24.10;;
30896;SDS011;64229;52.246;21.054;2022-12-18T14:28:57;74.32;;;23.38;;
30896;SDS011;64229;52.246;21.054;2022-12-18T14:31:27;70.90;;;21.45;;
30896;SDS011;64229;52.246;21.054;2022-12-18T14:33:54;77.43;;;23.02;;
30896;SDS011;64229;52.246;21.054;2022-12-18T14:36:21;79.75;;;23.60;;
30896;SDS011;64229;52.246;21.054;2022-12-18T14:38:51;80.38;;;24.38;;
30896;SDS011;64229;52.246;21.054;2022-12-18T14:41:19;72.72;;;22.70;;
30896;SDS011;64229;52.246;21.054;2022-12-18T14:43:46;70.05;;;23.15;;
30896;SDS011;64229;52.246;21.054;2022-12-18T14:48:54;64.25;;;21.75;;
30896;SDS011;64229;52.246;21.054;2022-12-18T14:51:20;70.15;;;21.90;;
30896;SDS011;64229;52.246;21.054;2022-12-18T14:54:04;78.13;;;23.77;;
30896;SDS011;64229;52.246;21.054;2022-12-18T14:56:46;68.75;;;22.88;;
30896;SDS011;64229;52.246;21.054;2022-12-18T15:01:45;68.28;;;21.13;;
30896;SDS011;64229;52.246;21.054;2022-12-18T15:07:17;70.90;;;23.05;;
30896;SDS011;64229;52.246;21.054;2022-12-18T15:20:39;68.82;;;23.13;;
30896;SDS011;64229;52.246;21.054;2022-12-18T15:23:11;85.90;;;26.08;;
30896;SDS011;64229;52.246;21.054;2022-12-18T15:25:42;83.88;;;24.40;;
30896;SDS011;64229;52.246;21.054;2022-12-18T15:28:24;79.75;;;23.33;;
30896;SDS011;64229;52.246;21.054;2022-12-18T15:33:25;75.18;;;24.80;;
30896;SDS011;64229;52.246;21.054;2022-12-18T15:36:02;74.75;;;24.92;;
30896;SDS011;64229;52.246;21.054;2022-12-18T15:38:30;80.15;;;25.45;;
30896;SDS011;64229;52.246;21.054;2022-12-18T15:40:56;71.05;;;23.23;;
30896;SDS011;64229;52.246;21.054;2022-12-18T15:43:22;80.10;;;24.67;;
30896;SDS011;64229;52.246;21.054;2022-12-18T15:46:02;82.88;;;24.45;;
30896;SDS011;64229;52.246;21.054;2022-12-18T15:48:33;77.35;;;24.15;;
30896;SDS011;64229;52.246;21.054;2022-12-18T15:51:00;69.70;;;22.58;;
30896;SDS011;64229;52.246;21.054;2022-12-18T15:53:28;78.25;;;24.15;;
30896;SDS011;64229;52.246;21.054;2022-12-18T15:55:57;73.80;;;23.35;;
30896;SDS011;64229;52.246;21.054;2022-12-18T15:58:41;75.30;;;22.17;;
30896;SDS011;64229;52.246;21.054;2022-12-18T16:01:07;66.65;;;22.92;;
30896;SDS011;64229;52.246;21.054;2022-12-18T16:03:34;71.30;;;23.23;;
30896;SDS011;64229;52.246;21.054;2022-12-18T16:05:59;72.45;;;22.65;;
30896;SDS011;64229;52.246;21.054;2022-12-18T16:08:27;66.78;;;24.10;;
30896;SDS011;64229;52.246;21.054;2022-12-18T16:10:54;69.53;;;22.42;;
30896;SDS011;64229;52.246;21.054;2022-12-18T16:13:21;67.63;;;23.92;;
30896;SDS011;64229;52.246;21.054;2022-12-18T16:15:46;63.63;;;20.88;;
30896;SDS011;64229;52.246;21.054;2022-12-18T16:18:12;61.03;;;20.98;;
30896;SDS011;64229;52.246;21.054;2022-12-18T16:20:37;64.30;;;21.55;;
30896;SDS011;64229;52.246;21.054;2022-12-18T16:23:03;65.68;;;21.27;;
30896;SDS011;64229;52.246;21.054;2022-12-18T16:25:29;62.80;;;21.83;;
30896;SDS011;64229;52.246;21.054;2022-12-18T16:27:55;69.60;;;23.48;;
30896;SDS011;64229;52.246;21.054;2022-12-18T16:30:22;65.85;;;22.60;;
30896;SDS011;64229;52.246;21.054;2022-12-18T16:32:49;60.58;;;19.30;;
30896;SDS011;64229;52.246;21.054;2022-12-18T16:35:15;69.60;;;20.58;;
30896;SDS011;64229;52.246;21.054;2022-12-18T16:37:41;57.40;;;19.33;;
30896;SDS011;64229;52.246;21.054;2022-12-18T16:40:08;58.25;;;20.23;;
30896;SDS011;64229;52.246;21.054;2022-12-18T16:42:36;61.28;;;18.40;;
30896;SDS011;64229;52.246;21.054;2022-12-18T16:45:03;61.45;;;18.88;;